sensor_id;sensor_type;location;lat;lon;timestamp;P1;durP1;ratioP1;P2;durP2;ratioP2
5357;SDS011;2702;51.014;7.170;2022-10-14T00:00:38;13.20;;;11.80;;
5357;SDS011;2702;51.014;7.170;2022-10-14T00:03:05;13.83;;;12.43;;
5357;SDS011;2702;51.014;7.170;2022-10-14T00:05:31;12.90;;;11.60;;
5357;SDS011;2702;51.014;7.170;2022-10-14T00:07:57;14.83;;;13.27;;
5357;SDS011;2702;51.014;7.170;2022-10-14T00:10:22;12.93;;;11.47;;
5357;SDS011;2702;51.014;7.170;2022-10-14T00:12:49;15.10;;;13.00;;
5357;SDS011;2702;51.014;7.170;2022-10-14T00:15:15;13.77;;;12.40;;
5357;SDS011;2702;51.014;7.170;2022-10-14T00:17:41;14.67;;;13.17;;
5357;SDS011;2702;51.014;7.170;2022-10-14T00:20:07;12.93;;;11.57;;
5357;SDS011;2702;51.014;7.170;2022-10-14T00:22:33;14.27;;;12.70;;
5357;SDS011;2702;51.014;7.170;2022-10-14T00:24:59;12.80;;;11.50;;
5357;SDS011;2702;51.014;7.170;2022-10-14T00:27:25;13.50;;;12.10;;
5357;SDS011;2702;51.014;7.170;2022-10-14T00:29:50;13.83;;;12.43;;
5357;SDS011;2702;51.014;7.170;2022-10-14T00:32:16;14.47;;;11.40;;
5357;SDS011;2702;51.014;7.170;2022-10-14T00:34:42;12.63;;;11.37;;
5357;SDS011;2702;51.014;7.170;2022-10-14T00:37:08;13.17;;;11.77;;
5357;SDS011;2702;51.014;7.170;2022-10-14T00:39:34;14.37;;;12.87;;
5357;SDS011;2702;51.014;7.170;2022-10-14T00:42:00;17.47;;;12.93;;
5357;SDS011;2702;51.014;7.170;2022-10-14T00:46:52;14.93;;;13.33;;
5357;SDS011;2702;51.014;7.170;2022-10-14T00:49:32;12.37;;;11.13;;
5357;SDS011;2702;51.014;7.170;2022-10-14T00:52:05;13.83;;;11.60;;
5357;SDS011;2702;51.014;7.170;2022-10-14T00:54:49;19.23;;;12.53;;
5357;SDS011;2702;51.014;7.170;2022-10-14T00:57:17;13.13;;;11.70;;
5357;SDS011;2702;51.014;7.170;2022-10-14T00:59:43;13.87;;;12.47;;
5357;SDS011;2702;51.014;7.170;2022-10-14T01:02:09;12.07;;;10.87;;
5357;SDS011;2702;51.014;7.170;2022-10-14T01:04:36;12.97;;;11.53;;
5357;SDS011;2702;51.014;7.170;2022-10-14T01:07:22;14.10;;;11.30;;
5357;SDS011;2702;51.014;7.170;2022-10-14T01:09:55;13.17;;;10.30;;
5357;SDS011;2702;51.014;7.170;2022-10-14T01:12:35;11.93;;;10.70;;
5357;SDS011;2702;51.014;7.170;2022-10-14T01:31:56;9.33;;;8.50;;
5357;SDS011;2702;51.014;7.170;2022-10-14T01:34:32;9.17;;;8.30;;
5357;SDS011;2702;51.014;7.170;2022-10-14T01:37:10;9.63;;;8.57;;
5357;SDS011;2702;51.014;7.170;2022-10-14T01:39:42;22.93;;;10.90;;
5357;SDS011;2702;51.014;7.170;2022-10-14T01:42:19;23.00;;;9.10;;
5357;SDS011;2702;51.014;7.170;2022-10-14T01:44:49;11.60;;;8.00;;
5357;SDS011;2702;51.014;7.170;2022-10-14T01:47:19;9.23;;;8.20;;
5357;SDS011;2702;51.014;7.170;2022-10-14T01:52:43;17.23;;;8.87;;
5357;SDS011;2702;51.014;7.170;2022-10-14T01:55:17;35.73;;;10.03;;
5357;SDS011;2702;51.014;7.170;2022-10-14T01:57:48;39.37;;;10.73;;
5357;SDS011;2702;51.014;7.170;2022-10-14T02:00:18;11.00;;;9.13;;
5357;SDS011;2702;51.014;7.170;2022-10-14T02:02:44;11.43;;;8.37;;
5357;SDS011;2702;51.014;7.170;2022-10-14T02:05:13;8.87;;;7.40;;
5357;SDS011;2702;51.014;7.170;2022-10-14T02:07:47;9.50;;;7.63;;
5357;SDS011;2702;51.014;7.170;2022-10-14T02:18:10;8.13;;;7.43;;
5357;SDS011;2702;51.014;7.170;2022-10-14T02:20:41;9.83;;;8.10;;
5357;SDS011;2702;51.014;7.170;2022-10-14T02:23:15;10.70;;;7.90;;
5357;SDS011;2702;51.014;7.170;2022-10-14T02:25:46;9.20;;;8.30;;
5357;SDS011;2702;51.014;7.170;2022-10-14T02:28:15;8.60;;;7.70;;
5357;SDS011;2702;51.014;7.170;2022-10-14T02:30:46;12.50;;;8.30;;
5357;SDS011;2702;51.014;7.170;2022-10-14T02:33:16;8.70;;;7.80;;
5357;SDS011;2702;51.014;7.170;2022-10-14T02:35:45;8.90;;;8.10;;
5357;SDS011;2702;51.014;7.170;2022-10-14T02:38:14;9.90;;;8.20;;
5357;SDS011;2702;51.014;7.170;2022-10-14T02:40:42;8.37;;;7.67;;
5357;SDS011;2702;51.014;7.170;2022-10-14T02:43:10;9.03;;;8.13;;
5357;SDS011;2702;51.014;7.170;2022-10-14T02:45:37;8.00;;;7.30;;
5357;SDS011;2702;51.014;7.170;2022-10-14T02:48:05;8.77;;;7.30;;
5357;SDS011;2702;51.014;7.170;2022-10-14T02:50:31;9.00;;;8.03;;
5357;SDS011;2702;51.014;7.170;2022-10-14T02:52:58;9.30;;;8.50;;
5357;SDS011;2702;51.014;7.170;2022-10-14T02:55:23;9.60;;;8.53;;
5357;SDS011;2702;51.014;7.170;2022-10-14T02:57:49;8.97;;;8.07;;
5357;SDS011;2702;51.014;7.170;2022-10-14T03:00:15;13.07;;;8.40;;
5357;SDS011;2702;51.014;7.170;2022-10-14T03:02:41;9.17;;;8.30;;
5357;SDS011;2702;51.014;7.170;2022-10-14T03:05:07;8.67;;;7.40;;
5357;SDS011;2702;51.014;7.170;2022-10-14T03:07:34;8.07;;;7.27;;
5357;SDS011;2702;51.014;7.170;2022-10-14T03:10:00;9.27;;;8.40;;
5357;SDS011;2702;51.014;7.170;2022-10-14T03:12:27;9.47;;;8.13;;
5357;SDS011;2702;51.014;7.170;2022-10-14T03:14:53;8.83;;;8.03;;
5357;SDS011;2702;51.014;7.170;2022-10-14T03:17:19;7.57;;;6.93;;
5357;SDS011;2702;51.014;7.170;2022-10-14T03:19:45;10.47;;;8.60;;
5357;SDS011;2702;51.014;7.170;2022-10-14T03:22:11;9.70;;;7.60;;
5357;SDS011;2702;51.014;7.170;2022-10-14T03:24:36;8.73;;;7.67;;
5357;SDS011;2702;51.014;7.170;2022-10-14T03:27:02;7.10;;;6.50;;
5357;SDS011;2702;51.014;7.170;2022-10-14T03:29:28;11.37;;;7.97;;
5357;SDS011;2702;51.014;7.170;2022-10-14T03:31:54;8.90;;;8.10;;
5357;SDS011;2702;51.014;7.170;2022-10-14T03:34:20;7.93;;;7.13;;
5357;SDS011;2702;51.014;7.170;2022-10-14T03:36:46;9.40;;;7.80;;
5357;SDS011;2702;51.014;7.170;2022-10-14T03:39:12;8.90;;;8.10;;
5357;SDS011;2702;51.014;7.170;2022-10-14T03:41:37;8.23;;;7.27;;
5357;SDS011;2702;51.014;7.170;2022-10-14T03:44:03;40.77;;;10.27;;
5357;SDS011;2702;51.014;7.170;2022-10-14T03:46:29;7.97;;;7.27;;
5357;SDS011;2702;51.014;7.170;2022-10-14T03:48:55;9.07;;;8.27;;
5357;SDS011;2702;51.014;7.170;2022-10-14T03:51:21;7.53;;;6.87;;
5357;SDS011;2702;51.014;7.170;2022-10-14T03:53:48;9.27;;;8.37;;
5357;SDS011;2702;51.014;7.170;2022-10-14T03:56:14;8.17;;;7.47;;
5357;SDS011;2702;51.014;7.170;2022-10-14T03:58:39;8.60;;;7.70;;
5357;SDS011;2702;51.014;7.170;2022-10-14T04:01:05;8.23;;;7.30;;
5357;SDS011;2702;51.014;7.170;2022-10-14T04:03:31;8.07;;;7.27;;
5357;SDS011;2702;51.014;7.170;2022-10-14T04:05:58;8.03;;;7.23;;
5357;SDS011;2702;51.014;7.170;2022-10-14T04:08:24;7.90;;;7.20;;
5357;SDS011;2702;51.014;7.170;2022-10-14T04:10:53;7.63;;;6.97;;
5357;SDS011;2702;51.014;7.170;2022-10-14T04:13:20;8.70;;;7.77;;
5357;SDS011;2702;51.014;7.170;2022-10-14T04:15:46;8.30;;;7.10;;
5357;SDS011;2702;51.014;7.170;2022-10-14T04:18:12;7.80;;;7.00;;
5357;SDS011;2702;51.014;7.170;2022-10-14T04:20:38;7.53;;;6.87;;
5357;SDS011;2702;51.014;7.170;2022-10-14T04:23:04;7.20;;;6.50;;
5357;SDS011;2702;51.014;7.170;2022-10-14T04:25:30;11.33;;;7.97;;
5357;SDS011;2702;51.014;7.170;2022-10-14T04:27:56;7.63;;;6.93;;
5357;SDS011;2702;51.014;7.170;2022-10-14T04:30:21;8.60;;;6.93;;
5357;SDS011;2702;51.014;7.170;2022-10-14T04:32:47;10.27;;;7.17;;
5357;SDS011;2702;51.014;7.170;2022-10-14T04:35:13;8.03;;;7.13;;
5357;SDS011;2702;51.014;7.170;2022-10-14T04:37:39;7.67;;;7.03;;
5357;SDS011;2702;51.014;7.170;2022-10-14T04:40:05;8.73;;;7.93;;
5357;SDS011;2702;51.014;7.170;2022-10-14T04:42:31;7.57;;;6.80;;
5357;SDS011;2702;51.014;7.170;2022-10-14T04:44:57;8.13;;;7.40;;
5357;SDS011;2702;51.014;7.170;2022-10-14T04:47:23;7.70;;;7.07;;
5357;SDS011;2702;51.014;7.170;2022-10-14T04:49:49;7.80;;;6.97;;
5357;SDS011;2702;51.014;7.170;2022-10-14T04:52:15;7.90;;;6.73;;
5357;SDS011;2702;51.014;7.170;2022-10-14T04:54:40;7.67;;;6.97;;
5357;SDS011;2702;51.014;7.170;2022-10-14T04:57:06;7.93;;;7.13;;
5357;SDS011;2702;51.014;7.170;2022-10-14T04:59:34;6.73;;;6.13;;
5357;SDS011;2702;51.014;7.170;2022-10-14T05:02:00;7.77;;;7.07;;
5357;SDS011;2702;51.014;7.170;2022-10-14T05:04:25;7.70;;;6.90;;
5357;SDS011;2702;51.014;7.170;2022-10-14T05:06:51;8.00;;;7.30;;
5357;SDS011;2702;51.014;7.170;2022-10-14T05:09:17;8.60;;;7.80;;
5357;SDS011;2702;51.014;7.170;2022-10-14T05:11:43;8.23;;;7.07;;
5357;SDS011;2702;51.014;7.170;2022-10-14T05:14:09;7.00;;;6.37;;
5357;SDS011;2702;51.014;7.170;2022-10-14T05:16:35;8.00;;;7.30;;
5357;SDS011;2702;51.014;7.170;2022-10-14T05:19:01;7.40;;;6.70;;
5357;SDS011;2702;51.014;7.170;2022-10-14T05:21:27;7.33;;;6.63;;
5357;SDS011;2702;51.014;7.170;2022-10-14T05:23:53;7.20;;;6.50;;
5357;SDS011;2702;51.014;7.170;2022-10-14T05:26:19;7.90;;;7.17;;
5357;SDS011;2702;51.014;7.170;2022-10-14T05:28:44;9.03;;;7.07;;
5357;SDS011;2702;51.014;7.170;2022-10-14T05:31:10;7.60;;;6.90;;
5357;SDS011;2702;51.014;7.170;2022-10-14T05:33:36;8.63;;;6.80;;
5357;SDS011;2702;51.014;7.170;2022-10-14T05:36:02;6.70;;;6.10;;
5357;SDS011;2702;51.014;7.170;2022-10-14T05:38:30;7.10;;;6.50;;
5357;SDS011;2702;51.014;7.170;2022-10-14T05:40:57;7.07;;;6.43;;
5357;SDS011;2702;51.014;7.170;2022-10-14T05:43:23;6.73;;;6.20;;
5357;SDS011;2702;51.014;7.170;2022-10-14T05:45:50;7.87;;;6.67;;
5357;SDS011;2702;51.014;7.170;2022-10-14T05:48:16;8.70;;;6.60;;
5357;SDS011;2702;51.014;7.170;2022-10-14T05:50:42;7.53;;;6.80;;
5357;SDS011;2702;51.014;7.170;2022-10-14T05:53:08;8.10;;;6.63;;
5357;SDS011;2702;51.014;7.170;2022-10-14T05:55:35;8.00;;;7.20;;
5357;SDS011;2702;51.014;7.170;2022-10-14T05:58:02;6.80;;;6.10;;
5357;SDS011;2702;51.014;7.170;2022-10-14T06:00:28;7.03;;;6.30;;
5357;SDS011;2702;51.014;7.170;2022-10-14T06:02:57;7.13;;;6.43;;
5357;SDS011;2702;51.014;7.170;2022-10-14T06:05:23;8.60;;;7.70;;
5357;SDS011;2702;51.014;7.170;2022-10-14T06:07:49;8.50;;;7.80;;
5357;SDS011;2702;51.014;7.170;2022-10-14T06:10:15;6.80;;;6.10;;
5357;SDS011;2702;51.014;7.170;2022-10-14T06:12:41;7.50;;;6.80;;
5357;SDS011;2702;51.014;7.170;2022-10-14T06:15:07;7.00;;;6.40;;
5357;SDS011;2702;51.014;7.170;2022-10-14T06:17:33;8.33;;;7.53;;
5357;SDS011;2702;51.014;7.170;2022-10-14T06:19:59;8.50;;;7.50;;
5357;SDS011;2702;51.014;7.170;2022-10-14T06:22:25;8.33;;;7.40;;
5357;SDS011;2702;51.014;7.170;2022-10-14T06:24:52;8.73;;;7.93;;
5357;SDS011;2702;51.014;7.170;2022-10-14T06:27:18;7.60;;;6.90;;
5357;SDS011;2702;51.014;7.170;2022-10-14T06:29:44;8.10;;;7.40;;
5357;SDS011;2702;51.014;7.170;2022-10-14T06:32:11;9.13;;;8.00;;
5357;SDS011;2702;51.014;7.170;2022-10-14T06:34:36;9.13;;;8.23;;
5357;SDS011;2702;51.014;7.170;2022-10-14T06:37:03;9.00;;;8.20;;
5357;SDS011;2702;51.014;7.170;2022-10-14T06:39:28;8.80;;;7.90;;
5357;SDS011;2702;51.014;7.170;2022-10-14T06:41:54;8.57;;;7.77;;
5357;SDS011;2702;51.014;7.170;2022-10-14T06:44:20;9.47;;;8.20;;
5357;SDS011;2702;51.014;7.170;2022-10-14T06:46:46;9.30;;;8.40;;
5357;SDS011;2702;51.014;7.170;2022-10-14T06:49:12;9.40;;;7.43;;
5357;SDS011;2702;51.014;7.170;2022-10-14T06:51:38;9.10;;;8.10;;
5357;SDS011;2702;51.014;7.170;2022-10-14T06:54:04;10.63;;;9.63;;
5357;SDS011;2702;51.014;7.170;2022-10-14T06:56:31;9.93;;;8.67;;
5357;SDS011;2702;51.014;7.170;2022-10-14T06:58:58;11.00;;;8.43;;
5357;SDS011;2702;51.014;7.170;2022-10-14T07:01:24;9.70;;;8.73;;
5357;SDS011;2702;51.014;7.170;2022-10-14T07:03:50;9.00;;;7.97;;
5357;SDS011;2702;51.014;7.170;2022-10-14T07:06:16;10.33;;;8.60;;
5357;SDS011;2702;51.014;7.170;2022-10-14T07:08:42;9.90;;;8.90;;
5357;SDS011;2702;51.014;7.170;2022-10-14T07:11:08;10.13;;;9.00;;
5357;SDS011;2702;51.014;7.170;2022-10-14T07:13:34;9.93;;;8.30;;
5357;SDS011;2702;51.014;7.170;2022-10-14T07:15:59;8.90;;;7.53;;
5357;SDS011;2702;51.014;7.170;2022-10-14T07:18:26;10.13;;;8.80;;
5357;SDS011;2702;51.014;7.170;2022-10-14T07:20:52;10.83;;;8.63;;
5357;SDS011;2702;51.014;7.170;2022-10-14T07:23:18;9.67;;;8.50;;
5357;SDS011;2702;51.014;7.170;2022-10-14T07:25:44;8.67;;;7.87;;
5357;SDS011;2702;51.014;7.170;2022-10-14T07:28:10;9.23;;;8.33;;
5357;SDS011;2702;51.014;7.170;2022-10-14T07:30:36;9.90;;;9.00;;
5357;SDS011;2702;51.014;7.170;2022-10-14T07:33:05;10.23;;;8.30;;
5357;SDS011;2702;51.014;7.170;2022-10-14T07:35:31;9.90;;;8.10;;
5357;SDS011;2702;51.014;7.170;2022-10-14T07:37:58;9.70;;;8.20;;
5357;SDS011;2702;51.014;7.170;2022-10-14T07:40:24;11.43;;;8.73;;
5357;SDS011;2702;51.014;7.170;2022-10-14T07:42:50;9.77;;;8.87;;
5357;SDS011;2702;51.014;7.170;2022-10-14T07:45:16;10.57;;;8.10;;
5357;SDS011;2702;51.014;7.170;2022-10-14T07:47:48;8.87;;;8.07;;
5357;SDS011;2702;51.014;7.170;2022-10-14T07:50:15;10.30;;;8.10;;
5357;SDS011;2702;51.014;7.170;2022-10-14T07:52:41;8.20;;;7.40;;
5357;SDS011;2702;51.014;7.170;2022-10-14T07:55:07;8.07;;;7.27;;
5357;SDS011;2702;51.014;7.170;2022-10-14T07:57:33;9.10;;;8.20;;
5357;SDS011;2702;51.014;7.170;2022-10-14T07:59:59;9.37;;;7.70;;
5357;SDS011;2702;51.014;7.170;2022-10-14T08:02:25;8.00;;;7.23;;
5357;SDS011;2702;51.014;7.170;2022-10-14T08:04:51;8.53;;;7.63;;
5357;SDS011;2702;51.014;7.170;2022-10-14T08:07:19;8.47;;;7.67;;
5357;SDS011;2702;51.014;7.170;2022-10-14T08:09:46;9.47;;;7.80;;
5357;SDS011;2702;51.014;7.170;2022-10-14T08:12:12;9.43;;;8.47;;
5357;SDS011;2702;51.014;7.170;2022-10-14T08:14:38;8.47;;;7.67;;
5357;SDS011;2702;51.014;7.170;2022-10-14T08:17:03;8.67;;;7.33;;
5357;SDS011;2702;51.014;7.170;2022-10-14T08:19:29;8.27;;;7.43;;
5357;SDS011;2702;51.014;7.170;2022-10-14T08:21:55;8.60;;;7.57;;
5357;SDS011;2702;51.014;7.170;2022-10-14T08:24:21;8.43;;;7.63;;
5357;SDS011;2702;51.014;7.170;2022-10-14T08:26:48;8.90;;;8.10;;
5357;SDS011;2702;51.014;7.170;2022-10-14T08:29:16;9.47;;;8.47;;
5357;SDS011;2702;51.014;7.170;2022-10-14T08:31:42;8.80;;;7.93;;
5357;SDS011;2702;51.014;7.170;2022-10-14T08:34:08;10.43;;;7.67;;
5357;SDS011;2702;51.014;7.170;2022-10-14T08:36:35;8.00;;;7.20;;
5357;SDS011;2702;51.014;7.170;2022-10-14T08:39:01;9.17;;;8.37;;
5357;SDS011;2702;51.014;7.170;2022-10-14T08:44:31;9.43;;;8.37;;
5357;SDS011;2702;51.014;7.170;2022-10-14T08:47:12;10.00;;;8.07;;
5357;SDS011;2702;51.014;7.170;2022-10-14T08:50:43;8.87;;;7.80;;
5357;SDS011;2702;51.014;7.170;2022-10-14T08:55:38;8.37;;;7.63;;
5357;SDS011;2702;51.014;7.170;2022-10-14T09:00:56;7.33;;;6.63;;
5357;SDS011;2702;51.014;7.170;2022-10-14T09:03:28;7.30;;;6.70;;
5357;SDS011;2702;51.014;7.170;2022-10-14T09:05:59;7.90;;;7.10;;
5357;SDS011;2702;51.014;7.170;2022-10-14T09:08:35;7.83;;;7.13;;
5357;SDS011;2702;51.014;7.170;2022-10-14T09:11:09;7.50;;;6.80;;
5357;SDS011;2702;51.014;7.170;2022-10-14T09:13:40;7.90;;;7.10;;
5357;SDS011;2702;51.014;7.170;2022-10-14T09:16:11;7.27;;;6.57;;
5357;SDS011;2702;51.014;7.170;2022-10-14T09:19:04;8.60;;;7.17;;
5357;SDS011;2702;51.014;7.170;2022-10-14T09:21:40;7.60;;;6.90;;
5357;SDS011;2702;51.014;7.170;2022-10-14T09:26:45;7.37;;;6.67;;
5357;SDS011;2702;51.014;7.170;2022-10-14T09:32:14;8.33;;;7.37;;
5357;SDS011;2702;51.014;7.170;2022-10-14T09:34:51;7.50;;;6.80;;
5357;SDS011;2702;51.014;7.170;2022-10-14T09:37:25;7.17;;;6.57;;
5357;SDS011;2702;51.014;7.170;2022-10-14T09:40:02;7.83;;;7.03;;
5357;SDS011;2702;51.014;7.170;2022-10-14T09:45:25;9.90;;;6.83;;
5357;SDS011;2702;51.014;7.170;2022-10-14T09:48:02;7.87;;;7.17;;
5357;SDS011;2702;51.014;7.170;2022-10-14T09:50:37;10.40;;;8.03;;
5357;SDS011;2702;51.014;7.170;2022-10-14T09:53:17;8.20;;;7.40;;
5357;SDS011;2702;51.014;7.170;2022-10-14T09:55:53;8.40;;;7.60;;
5357;SDS011;2702;51.014;7.170;2022-10-14T09:58:35;10.90;;;9.90;;
5357;SDS011;2702;51.014;7.170;2022-10-14T10:01:02;11.03;;;9.73;;
5357;SDS011;2702;51.014;7.170;2022-10-14T10:03:31;9.50;;;8.40;;
5357;SDS011;2702;51.014;7.170;2022-10-14T10:06:00;10.03;;;8.70;;
5357;SDS011;2702;51.014;7.170;2022-10-14T10:08:28;11.80;;;9.37;;
5357;SDS011;2702;51.014;7.170;2022-10-14T10:11:04;10.60;;;8.87;;
5357;SDS011;2702;51.014;7.170;2022-10-14T10:13:35;12.17;;;8.70;;
5357;SDS011;2702;51.014;7.170;2022-10-14T10:16:05;10.33;;;8.47;;
5357;SDS011;2702;51.014;7.170;2022-10-14T10:18:32;12.53;;;9.97;;
5357;SDS011;2702;51.014;7.170;2022-10-14T10:20:59;11.47;;;9.53;;
5357;SDS011;2702;51.014;7.170;2022-10-14T10:23:35;12.27;;;9.23;;
5357;SDS011;2702;51.014;7.170;2022-10-14T10:26:12;10.07;;;9.07;;
5357;SDS011;2702;51.014;7.170;2022-10-14T10:28:43;14.20;;;10.80;;
5357;SDS011;2702;51.014;7.170;2022-10-14T10:37:04;14.17;;;9.80;;
5357;SDS011;2702;51.014;7.170;2022-10-14T10:39:43;10.87;;;9.50;;
5357;SDS011;2702;51.014;7.170;2022-10-14T10:42:58;10.30;;;9.10;;
5357;SDS011;2702;51.014;7.170;2022-10-14T10:48:15;9.83;;;8.53;;
5357;SDS011;2702;51.014;7.170;2022-10-14T10:50:52;11.77;;;9.60;;
5357;SDS011;2702;51.014;7.170;2022-10-14T10:59:23;9.70;;;8.50;;
5357;SDS011;2702;51.014;7.170;2022-10-14T11:14:22;12.63;;;10.80;;
5357;SDS011;2702;51.014;7.170;2022-10-14T11:17:19;11.37;;;10.17;;
5357;SDS011;2702;51.014;7.170;2022-10-14T11:22:29;11.43;;;10.33;;
5357;SDS011;2702;51.014;7.170;2022-10-14T11:25:13;11.97;;;9.77;;
5357;SDS011;2702;51.014;7.170;2022-10-14T11:39:56;12.63;;;10.10;;
5357;SDS011;2702;51.014;7.170;2022-10-14T11:48:16;13.00;;;9.67;;
5357;SDS011;2702;51.014;7.170;2022-10-14T11:50:48;12.33;;;10.70;;
5357;SDS011;2702;51.014;7.170;2022-10-14T11:53:30;11.33;;;10.23;;
5357;SDS011;2702;51.014;7.170;2022-10-14T11:56:25;12.13;;;10.40;;
5357;SDS011;2702;51.014;7.170;2022-10-14T11:58:58;10.30;;;9.30;;
5357;SDS011;2702;51.014;7.170;2022-10-14T12:01:47;11.27;;;10.17;;
5357;SDS011;2702;51.014;7.170;2022-10-14T12:04:23;12.87;;;10.30;;
5357;SDS011;2702;51.014;7.170;2022-10-14T12:07:35;11.30;;;10.10;;
5357;SDS011;2702;51.014;7.170;2022-10-14T12:10:17;10.30;;;9.27;;
5357;SDS011;2702;51.014;7.170;2022-10-14T12:12:51;10.47;;;9.27;;
5357;SDS011;2702;51.014;7.170;2022-10-14T12:15:19;10.60;;;9.50;;
5357;SDS011;2702;51.014;7.170;2022-10-14T12:22:55;10.23;;;9.23;;
5357;SDS011;2702;51.014;7.170;2022-10-14T12:25:23;11.40;;;9.63;;
5357;SDS011;2702;51.014;7.170;2022-10-14T12:27:52;13.30;;;9.90;;
5357;SDS011;2702;51.014;7.170;2022-10-14T12:30:40;10.13;;;9.00;;
5357;SDS011;2702;51.014;7.170;2022-10-14T12:38:23;12.30;;;9.60;;
5357;SDS011;2702;51.014;7.170;2022-10-14T12:40:51;12.00;;;10.80;;
5357;SDS011;2702;51.014;7.170;2022-10-14T12:43:19;11.03;;;10.03;;
5357;SDS011;2702;51.014;7.170;2022-10-14T12:48:36;10.00;;;8.97;;
5357;SDS011;2702;51.014;7.170;2022-10-14T12:51:20;9.30;;;8.40;;
5357;SDS011;2702;51.014;7.170;2022-10-14T12:54:02;9.13;;;8.20;;
5357;SDS011;2702;51.014;7.170;2022-10-14T12:56:41;9.00;;;8.20;;
5357;SDS011;2702;51.014;7.170;2022-10-14T12:59:23;10.90;;;8.60;;
5357;SDS011;2702;51.014;7.170;2022-10-14T13:01:54;9.70;;;8.70;;
5357;SDS011;2702;51.014;7.170;2022-10-14T13:04:22;9.07;;;8.13;;
5357;SDS011;2702;51.014;7.170;2022-10-14T13:09:59;8.07;;;7.37;;
5357;SDS011;2702;51.014;7.170;2022-10-14T13:13:43;8.57;;;7.77;;
5357;SDS011;2702;51.014;7.170;2022-10-14T13:21:09;8.87;;;7.97;;
5357;SDS011;2702;51.014;7.170;2022-10-14T13:24:13;7.73;;;6.93;;
5357;SDS011;2702;51.014;7.170;2022-10-14T13:26:43;8.27;;;7.47;;
5357;SDS011;2702;51.014;7.170;2022-10-14T13:38:00;9.20;;;8.03;;
5357;SDS011;2702;51.014;7.170;2022-10-14T13:40:52;9.60;;;7.53;;
5357;SDS011;2702;51.014;7.170;2022-10-14T13:43:23;8.30;;;7.50;;
5357;SDS011;2702;51.014;7.170;2022-10-14T13:46:05;8.13;;;7.43;;
5357;SDS011;2702;51.014;7.170;2022-10-14T13:48:39;8.67;;;7.87;;
5357;SDS011;2702;51.014;7.170;2022-10-14T13:53:51;9.50;;;7.90;;
5357;SDS011;2702;51.014;7.170;2022-10-14T13:56:23;7.67;;;6.97;;
5357;SDS011;2702;51.014;7.170;2022-10-14T13:58:52;8.27;;;7.47;;
5357;SDS011;2702;51.014;7.170;2022-10-14T14:01:18;8.33;;;7.53;;
5357;SDS011;2702;51.014;7.170;2022-10-14T14:03:51;8.03;;;6.80;;
5357;SDS011;2702;51.014;7.170;2022-10-14T14:06:20;7.50;;;6.80;;
5357;SDS011;2702;51.014;7.170;2022-10-14T14:11:34;8.27;;;7.50;;
5357;SDS011;2702;51.014;7.170;2022-10-14T14:14:03;8.67;;;7.83;;
5357;SDS011;2702;51.014;7.170;2022-10-14T14:19:20;8.37;;;7.57;;
5357;SDS011;2702;51.014;7.170;2022-10-14T14:21:51;7.23;;;6.53;;
5357;SDS011;2702;51.014;7.170;2022-10-14T14:24:37;8.10;;;7.30;;
5357;SDS011;2702;51.014;7.170;2022-10-14T14:27:03;7.80;;;6.50;;
5357;SDS011;2702;51.014;7.170;2022-10-14T14:29:33;7.83;;;6.70;;
5357;SDS011;2702;51.014;7.170;2022-10-14T14:32:00;7.10;;;6.40;;
5357;SDS011;2702;51.014;7.170;2022-10-14T14:34:28;7.30;;;5.70;;
5357;SDS011;2702;51.014;7.170;2022-10-14T14:36:55;6.30;;;5.70;;
5357;SDS011;2702;51.014;7.170;2022-10-14T14:39:25;6.00;;;5.50;;
5357;SDS011;2702;51.014;7.170;2022-10-14T14:41:53;5.70;;;5.20;;
5357;SDS011;2702;51.014;7.170;2022-10-14T14:44:25;7.63;;;5.60;;
5357;SDS011;2702;51.014;7.170;2022-10-14T14:46:55;6.00;;;5.40;;
5357;SDS011;2702;51.014;7.170;2022-10-14T14:49:30;5.40;;;4.90;;
5357;SDS011;2702;51.014;7.170;2022-10-14T14:51:59;5.80;;;5.30;;
5357;SDS011;2702;51.014;7.170;2022-10-14T14:54:25;7.40;;;5.83;;
5357;SDS011;2702;51.014;7.170;2022-10-14T14:56:59;5.90;;;5.40;;
5357;SDS011;2702;51.014;7.170;2022-10-14T14:59:30;5.87;;;5.37;;
5357;SDS011;2702;51.014;7.170;2022-10-14T15:02:00;6.07;;;5.30;;
5357;SDS011;2702;51.014;7.170;2022-10-14T15:04:29;4.93;;;4.53;;
5357;SDS011;2702;51.014;7.170;2022-10-14T15:07:02;5.47;;;4.90;;
5357;SDS011;2702;51.014;7.170;2022-10-14T15:09:44;7.57;;;4.87;;
5357;SDS011;2702;51.014;7.170;2022-10-14T15:12:23;4.60;;;4.20;;
5357;SDS011;2702;51.014;7.170;2022-10-14T15:14:54;5.50;;;4.67;;
5357;SDS011;2702;51.014;7.170;2022-10-14T15:19:58;5.37;;;4.87;;
5357;SDS011;2702;51.014;7.170;2022-10-14T15:22:45;5.10;;;4.10;;
5357;SDS011;2702;51.014;7.170;2022-10-14T15:25:23;5.03;;;4.43;;
5357;SDS011;2702;51.014;7.170;2022-10-14T15:27:56;6.80;;;4.63;;
5357;SDS011;2702;51.014;7.170;2022-10-14T15:33:19;6.10;;;4.13;;
5357;SDS011;2702;51.014;7.170;2022-10-14T15:35:54;5.20;;;4.80;;
5357;SDS011;2702;51.014;7.170;2022-10-14T15:38:25;4.73;;;4.33;;
5357;SDS011;2702;51.014;7.170;2022-10-14T15:40:52;5.33;;;4.50;;
5357;SDS011;2702;51.014;7.170;2022-10-14T15:43:19;5.50;;;4.40;;
5357;SDS011;2702;51.014;7.170;2022-10-14T15:45:50;5.20;;;4.70;;
5357;SDS011;2702;51.014;7.170;2022-10-14T15:48:37;4.87;;;4.47;;
5357;SDS011;2702;51.014;7.170;2022-10-14T15:51:05;5.23;;;4.73;;
5357;SDS011;2702;51.014;7.170;2022-10-14T15:53:31;4.93;;;4.53;;
5357;SDS011;2702;51.014;7.170;2022-10-14T15:55:58;5.23;;;4.80;;
5357;SDS011;2702;51.014;7.170;2022-10-14T15:58:26;5.73;;;4.47;;
5357;SDS011;2702;51.014;7.170;2022-10-14T16:00:52;5.53;;;4.60;;
5357;SDS011;2702;51.014;7.170;2022-10-14T16:03:18;4.40;;;4.10;;
5357;SDS011;2702;51.014;7.170;2022-10-14T16:05:44;4.60;;;4.17;;
5357;SDS011;2702;51.014;7.170;2022-10-14T16:08:11;4.87;;;4.47;;
5357;SDS011;2702;51.014;7.170;2022-10-14T16:10:38;5.23;;;4.80;;
5357;SDS011;2702;51.014;7.170;2022-10-14T16:13:04;4.93;;;4.53;;
5357;SDS011;2702;51.014;7.170;2022-10-14T16:15:46;5.70;;;4.00;;
5357;SDS011;2702;51.014;7.170;2022-10-14T16:18:22;3.87;;;3.57;;
5357;SDS011;2702;51.014;7.170;2022-10-14T16:20:49;4.20;;;3.80;;
5357;SDS011;2702;51.014;7.170;2022-10-14T16:23:16;4.03;;;3.73;;
5357;SDS011;2702;51.014;7.170;2022-10-14T16:25:44;7.10;;;6.47;;
5357;SDS011;2702;51.014;7.170;2022-10-14T16:28:13;4.03;;;3.73;;
5357;SDS011;2702;51.014;7.170;2022-10-14T16:30:43;3.80;;;3.50;;
5357;SDS011;2702;51.014;7.170;2022-10-14T16:33:13;4.00;;;3.60;;
5357;SDS011;2702;51.014;7.170;2022-10-14T16:35:43;3.83;;;3.40;;
5357;SDS011;2702;51.014;7.170;2022-10-14T16:38:13;3.83;;;3.53;;
5357;SDS011;2702;51.014;7.170;2022-10-14T16:40:38;3.97;;;3.67;;
5357;SDS011;2702;51.014;7.170;2022-10-14T16:43:04;3.57;;;3.27;;
5357;SDS011;2702;51.014;7.170;2022-10-14T16:45:31;4.23;;;3.80;;
5357;SDS011;2702;51.014;7.170;2022-10-14T16:47:56;4.30;;;3.90;;
5357;SDS011;2702;51.014;7.170;2022-10-14T16:50:22;4.07;;;3.77;;
5357;SDS011;2702;51.014;7.170;2022-10-14T16:52:49;4.70;;;3.63;;
5357;SDS011;2702;51.014;7.170;2022-10-14T16:55:33;4.17;;;3.87;;
5357;SDS011;2702;51.014;7.170;2022-10-14T16:57:59;3.67;;;3.37;;
5357;SDS011;2702;51.014;7.170;2022-10-14T17:00:25;3.43;;;3.13;;
5357;SDS011;2702;51.014;7.170;2022-10-14T17:02:51;3.70;;;3.40;;
5357;SDS011;2702;51.014;7.170;2022-10-14T17:05:18;4.00;;;3.40;;
5357;SDS011;2702;51.014;7.170;2022-10-14T17:07:45;4.33;;;3.90;;
5357;SDS011;2702;51.014;7.170;2022-10-14T17:10:11;3.80;;;3.50;;
5357;SDS011;2702;51.014;7.170;2022-10-14T17:12:37;4.13;;;3.73;;
5357;SDS011;2702;51.014;7.170;2022-10-14T17:15:03;5.03;;;4.50;;
5357;SDS011;2702;51.014;7.170;2022-10-14T17:17:30;4.40;;;4.00;;
5357;SDS011;2702;51.014;7.170;2022-10-14T17:19:56;4.50;;;4.10;;
5357;SDS011;2702;51.014;7.170;2022-10-14T17:22:22;4.33;;;4.03;;
5357;SDS011;2702;51.014;7.170;2022-10-14T17:24:48;5.27;;;4.73;;
5357;SDS011;2702;51.014;7.170;2022-10-14T17:27:15;7.10;;;4.50;;
5357;SDS011;2702;51.014;7.170;2022-10-14T17:29:48;5.43;;;4.97;;
5357;SDS011;2702;51.014;7.170;2022-10-14T17:32:14;5.33;;;4.83;;
5357;SDS011;2702;51.014;7.170;2022-10-14T17:34:41;5.27;;;4.83;;
5357;SDS011;2702;51.014;7.170;2022-10-14T17:37:07;5.10;;;4.70;;
5357;SDS011;2702;51.014;7.170;2022-10-14T17:39:33;5.20;;;4.70;;
5357;SDS011;2702;51.014;7.170;2022-10-14T17:41:59;5.00;;;4.50;;
5357;SDS011;2702;51.014;7.170;2022-10-14T17:44:25;4.67;;;4.33;;